This is the latest recevied weather packets stored in our database for station/object 9W2CEW-1. If no packets are shown the sender has not sent any weather packets the latest 10 day(s).
| Time | Temp. | Humidity | Pressure | Rain* | Wind** | Luminosity | Snow |
|---|---|---|---|---|---|---|---|
| 1777711746 | 31.67° C | 66% | 1000.6 hPa | - | - | - | - |
| 1777710937 | 30° C | 72% | 1000.8 hPa | - | - | - | - |
| 1777710843 | 30° C | 72% | 1000.8 hPa | - | - | - | - |
| 1777710051 | 28.33° C | 76% | 1001.6 hPa | - | - | - | - |
| 1777709943 | 28.33° C | 76% | 1001.6 hPa | - | - | - | - |
| 1777709087 | 28.33° C | 81% | 1001.6 hPa | - | - | - | - |
| 1777709046 | 28.33° C | 81% | 1001.6 hPa | - | - | - | - |
| 1777708146 | 29.44° C | 77% | 1001.2 hPa | - | - | - | - |
| 1777707339 | 31.11° C | 71% | 1001.1 hPa | - | - | - | - |
| 1777707245 | 31.11° C | 71% | 1001.1 hPa | - | - | - | - |
| 1777706345 | 31.11° C | 75% | 1001.2 hPa | - | - | - | - |
| 1777705481 | 30.56° C | 75% | 1001.5 hPa | - | - | - | - |
| 1777705445 | 30.56° C | 75% | 1001.5 hPa | - | - | - | - |
| 1777704544 | 40° C | 37% | 1001.5 hPa | - | - | - | - |
| 1777703644 | 41.11° C | 35% | 1001.5 hPa | - | - | - | - |
| 1777702747 | 40° C | 36% | 1001.8 hPa | - | - | - | - |
| 1777701884 | 40.56° C | 37% | 1002.2 hPa | - | - | - | - |
| 1777701844 | 40.56° C | 37% | 1002.2 hPa | - | - | - | - |
| 1777700944 | 40.56° C | 37% | 1002.3 hPa | - | - | - | - |
| 1777700109 | 40° C | 37% | 1002.6 hPa | - | - | - | - |
| 1777700044 | 40° C | 37% | 1002.6 hPa | - | - | - | - |
| 1777699144 | 40.56° C | 37% | 1003 hPa | - | - | - | - |
| 1777698244 | 40° C | 40% | 1003.2 hPa | - | - | - | - |
| 1777697344 | 39.44° C | 44% | 1003.6 hPa | - | - | - | - |
| 1777696523 | 41.11° C | 39% | 1003.9 hPa | - | - | - | - |
* Rain since midnight (hover to see other rain measurements)
** Current wind speed in m/s (hover to see current wind gust speed)